createdAt,value
2023-03-02T00:01:08.544Z,55.60
2023-03-02T00:03:40.598Z,55.50
2023-03-02T00:06:08.679Z,55.40
2023-03-02T00:08:36.470Z,55.50
2023-03-02T00:11:03.293Z,55.30
2023-03-02T00:13:30.848Z,54.90
2023-03-02T00:15:57.582Z,54.40
2023-03-02T00:18:24.238Z,54.20
2023-03-02T00:20:50.923Z,54.00
2023-03-02T00:23:19.117Z,53.90
2023-03-02T00:25:45.844Z,53.80
2023-03-02T00:28:12.495Z,53.90
2023-03-02T00:30:39.503Z,53.60
2023-03-02T00:33:06.169Z,53.10
2023-03-02T00:35:39.928Z,52.70
2023-03-02T00:38:07.401Z,52.40
2023-03-02T00:40:35.946Z,51.90
2023-03-02T00:43:02.701Z,51.90
2023-03-02T00:45:29.548Z,51.60
2023-03-02T00:47:56.239Z,51.40
2023-03-02T00:50:23.136Z,51.60
2023-03-02T00:52:49.787Z,51.80
2023-03-02T00:55:16.515Z,51.80
2023-03-02T00:57:43.189Z,51.80
2023-03-02T01:00:10.530Z,51.80
2023-03-02T01:02:43.868Z,51.70
2023-03-02T01:05:10.710Z,51.70
2023-03-02T01:07:37.351Z,51.80
2023-03-02T01:10:04.417Z,51.60
2023-03-02T01:12:32.267Z,51.60
2023-03-02T01:14:59.091Z,52.50
2023-03-02T01:17:25.914Z,51.60
2023-03-02T01:19:53.221Z,51.60
2023-03-02T01:22:20.732Z,51.60
2023-03-02T01:24:47.352Z,51.50
2023-03-02T01:27:14.506Z,51.40
2023-03-02T01:29:41.362Z,51.60
2023-03-02T01:32:08.182Z,51.80
2023-03-02T01:34:35.656Z,52.00
2023-03-02T01:37:02.366Z,52.30
2023-03-02T01:39:29.332Z,52.90
2023-03-02T01:41:56.265Z,53.30
2023-03-02T01:44:35.286Z,53.30
2023-03-02T01:47:04.814Z,53.50
2023-03-02T01:49:35.978Z,53.90
2023-03-02T01:52:02.852Z,53.80
2023-03-02T01:54:29.499Z,53.90
2023-03-02T01:56:58.164Z,53.80
2023-03-02T01:59:28.016Z,54.00
2023-03-02T02:01:58.214Z,54.10
2023-03-02T02:04:26.594Z,54.10
2023-03-02T02:07:04.852Z,54.00
2023-03-02T02:09:36.204Z,53.80
2023-03-02T02:12:03.044Z,53.70
2023-03-02T02:14:29.809Z,53.70
2023-03-02T02:16:56.750Z,53.50
2023-03-02T02:19:37.594Z,53.40
2023-03-02T02:22:04.429Z,53.40
2023-03-02T02:24:46.106Z,53.40
2023-03-02T02:27:13.508Z,53.40
2023-03-02T02:29:47.309Z,53.40
2023-03-02T02:32:26.613Z,53.50
2023-03-02T02:35:14.510Z,53.60
2023-03-02T02:37:45.393Z,53.60
2023-03-02T02:40:20.565Z,53.50
2023-03-02T02:42:50.219Z,53.50
2023-03-02T02:45:25.268Z,53.30
2023-03-02T02:47:53.015Z,53.30
2023-03-02T02:50:25.145Z,53.20
2023-03-02T02:53:06.614Z,53.30
2023-03-02T02:55:34.858Z,53.30
2023-03-02T02:58:09.919Z,53.30
2023-03-02T03:00:37.347Z,53.50
2023-03-02T03:03:29.143Z,53.50
2023-03-02T03:06:00.117Z,53.60
2023-03-02T03:08:52.945Z,53.80
2023-03-02T03:11:41.791Z,54.00
2023-03-02T03:14:15.312Z,54.60
2023-03-02T03:16:43.820Z,55.10
2023-03-02T03:19:31.670Z,55.50
2023-03-02T03:22:00.973Z,55.80
2023-03-02T03:24:29.881Z,55.80
2023-03-02T03:26:57.604Z,56.50
2023-03-02T03:29:26.362Z,56.90
2023-03-02T03:31:55.153Z,57.30
2023-03-02T03:34:21.957Z,57.70
2023-03-02T03:36:48.924Z,57.90
2023-03-02T03:39:17.327Z,58.00
2023-03-02T03:41:44.887Z,58.40
2023-03-02T03:44:12.139Z,58.40
2023-03-02T03:46:39.128Z,59.00
2023-03-02T03:49:05.974Z,59.30
2023-03-02T03:51:35.106Z,60.10
2023-03-02T03:54:04.100Z,60.40
2023-03-02T03:56:34.987Z,60.60
2023-03-02T03:59:08.438Z,60.60
2023-03-02T04:01:47.280Z,60.70
2023-03-02T04:04:22.911Z,60.70
2023-03-02T04:06:50.364Z,60.30
2023-03-02T04:09:20.196Z,59.50
2023-03-02T04:11:49.146Z,59.20
2023-03-02T04:14:16.258Z,59.40
2023-03-02T04:16:43.510Z,58.50
2023-03-02T04:19:11.024Z,58.30
2023-03-02T04:21:44.880Z,58.10
2023-03-02T04:24:13.484Z,58.20
2023-03-02T04:26:41.864Z,58.10
2023-03-02T04:29:09.528Z,58.00
2023-03-02T04:31:36.552Z,58.40
2023-03-02T04:34:04.164Z,57.40
2023-03-02T04:36:33.206Z,57.10
2023-03-02T04:38:59.960Z,57.10
2023-03-02T04:41:26.823Z,56.90
2023-03-02T04:43:53.457Z,56.60
2023-03-02T04:46:21.571Z,56.50
2023-03-02T04:48:48.315Z,56.40
2023-03-02T04:51:33.177Z,56.60
2023-03-02T04:54:08.610Z,56.80
2023-03-02T04:56:35.556Z,57.00
2023-03-02T04:59:02.449Z,57.70
2023-03-02T05:01:29.109Z,57.00
2023-03-02T05:03:55.961Z,57.00
2023-03-02T05:06:25.063Z,57.00
2023-03-02T05:08:53.330Z,57.00
2023-03-02T05:11:23.181Z,57.00
2023-03-02T05:13:56.737Z,57.10
2023-03-02T05:16:29.555Z,57.20
2023-03-02T05:18:56.269Z,57.20
2023-03-02T05:21:23.430Z,58.00
2023-03-02T05:23:50.367Z,57.10
2023-03-02T05:26:17.417Z,57.00
2023-03-02T05:28:44.687Z,56.90
2023-03-02T05:31:30.415Z,56.70
2023-03-02T05:33:57.786Z,56.50
2023-03-02T05:36:24.494Z,56.30
2023-03-02T05:38:51.541Z,56.20
2023-03-02T05:41:18.356Z,55.60
2023-03-02T05:43:45.102Z,55.30
2023-03-02T05:46:11.730Z,55.20
2023-03-02T05:48:38.318Z,55.10
2023-03-02T05:51:05.219Z,54.80
2023-03-02T05:53:31.870Z,54.70
2023-03-02T05:55:58.482Z,54.90
2023-03-02T05:58:25.131Z,55.20
2023-03-02T06:00:51.757Z,55.40
2023-03-02T06:03:19.134Z,55.50
2023-03-02T06:05:50.883Z,55.40
2023-03-02T06:08:18.792Z,55.50
2023-03-02T06:10:45.777Z,55.30
2023-03-02T06:13:12.421Z,54.50
2023-03-02T06:15:40.472Z,54.10
2023-03-02T06:18:07.161Z,53.60
2023-03-02T06:20:33.755Z,53.00
2023-03-02T06:23:00.487Z,52.40
2023-03-02T06:25:27.401Z,52.00
2023-03-02T06:27:54.069Z,51.80
2023-03-02T06:30:25.143Z,51.40
2023-03-02T06:32:52.150Z,50.50
2023-03-02T06:35:19.381Z,50.30
2023-03-02T06:37:46.159Z,49.40
2023-03-02T06:40:13.829Z,49.30
2023-03-02T06:42:42.436Z,48.50
2023-03-02T06:45:10.582Z,48.10
2023-03-02T06:47:37.378Z,48.00
2023-03-02T06:50:05.329Z,47.80
2023-03-02T06:52:31.929Z,47.00
2023-03-02T06:54:58.509Z,46.60
2023-03-02T06:57:25.210Z,46.00
2023-03-02T06:59:51.829Z,45.70
2023-03-02T07:02:18.399Z,46.20
2023-03-02T07:04:45.026Z,45.80
2023-03-02T07:07:11.549Z,45.50
2023-03-02T07:09:38.237Z,44.80
2023-03-02T07:12:05.027Z,44.60
2023-03-02T07:14:31.683Z,43.90
2023-03-02T07:17:00.025Z,43.50
2023-03-02T07:19:26.787Z,43.40
2023-03-02T07:21:53.442Z,42.60
2023-03-02T07:24:20.125Z,42.30
2023-03-02T07:26:46.928Z,41.60
2023-03-02T07:29:13.716Z,41.40
2023-03-02T07:31:40.372Z,40.50
2023-03-02T07:34:07.137Z,40.80
2023-03-02T07:36:33.769Z,39.00
2023-03-02T07:39:03.224Z,37.10
2023-03-02T07:41:29.964Z,35.50
2023-03-02T07:43:56.653Z,35.20
2023-03-02T07:46:23.310Z,34.00
2023-03-02T07:48:50.020Z,32.50
2023-03-02T07:51:16.749Z,33.00
2023-03-02T07:53:43.387Z,32.00
2023-03-02T07:56:11.549Z,28.40
2023-03-02T07:58:38.503Z,27.80
2023-03-02T08:01:05.320Z,26.90
2023-03-02T08:03:32.090Z,26.30
2023-03-02T08:05:58.807Z,25.60
2023-03-02T08:08:25.449Z,24.70
2023-03-02T08:10:52.087Z,22.50
2023-03-02T08:13:18.696Z,21.80
2023-03-02T08:15:45.314Z,20.10
2023-03-02T08:18:11.963Z,21.80
2023-03-02T08:20:38.667Z,20.50
2023-03-02T08:23:05.314Z,17.50
2023-03-02T08:25:31.922Z,19.80
2023-03-02T08:27:58.577Z,17.50
2023-03-02T08:30:25.409Z,17.60
2023-03-02T08:32:52.146Z,16.60
2023-03-02T08:35:18.923Z,16.40
2023-03-02T08:37:45.639Z,13.40
2023-03-02T08:40:12.705Z,14.50
2023-03-02T08:42:39.398Z,13.20
2023-03-02T08:45:06.639Z,14.00
2023-03-02T08:47:33.270Z,13.10
2023-03-02T08:49:59.917Z,14.60
2023-03-02T08:52:26.713Z,16.20
2023-03-02T08:54:53.431Z,15.70
2023-03-02T08:57:21.374Z,14.70
2023-03-02T08:59:48.168Z,13.00
2023-03-02T09:02:14.904Z,13.50
2023-03-02T09:04:41.771Z,13.60
2023-03-02T09:07:08.645Z,12.10
2023-03-02T09:09:35.616Z,11.80
2023-03-02T09:12:02.481Z,11.40
2023-03-02T09:14:29.166Z,11.20
2023-03-02T09:16:56.390Z,10.20
2023-03-02T09:19:23.038Z,8.50
2023-03-02T09:21:49.797Z,9.70
2023-03-02T09:24:16.639Z,8.80
2023-03-02T09:26:43.359Z,6.90
2023-03-02T09:29:10.579Z,7.30
2023-03-02T09:31:38.042Z,7.70
2023-03-02T09:34:05.320Z,7.80
2023-03-02T09:36:32.768Z,6.30
2023-03-02T09:38:59.525Z,5.20
2023-03-02T09:41:35.145Z,6.20
2023-03-02T09:44:08.523Z,9.00
2023-03-02T09:46:44.455Z,7.70
2023-03-02T09:49:26.146Z,8.10
2023-03-02T09:52:41.000Z,6.30
2023-03-02T09:55:19.971Z,7.70
2023-03-02T09:57:47.161Z,9.00
2023-03-02T10:00:19.802Z,9.30
2023-03-02T10:02:50.304Z,10.30
2023-03-02T10:05:45.299Z,8.30
2023-03-02T10:08:34.080Z,8.60
2023-03-02T10:11:06.919Z,9.40
2023-03-02T10:13:52.331Z,11.90
2023-03-02T10:16:57.483Z,10.40
2023-03-02T10:19:41.560Z,9.40
2023-03-02T10:22:34.805Z,11.80
2023-03-02T10:25:29.009Z,10.80
2023-03-02T10:28:12.324Z,10.40
2023-03-02T10:30:39.924Z,9.80
2023-03-02T10:33:17.980Z,10.50
2023-03-02T10:35:48.037Z,10.00
2023-03-02T10:38:25.113Z,10.70
2023-03-02T10:41:00.430Z,9.80
2023-03-02T10:43:31.502Z,9.90
2023-03-02T10:46:03.823Z,9.40
2023-03-02T10:48:30.745Z,9.60
2023-03-02T10:50:58.936Z,10.00
2023-03-02T10:53:25.728Z,9.80
2023-03-02T10:55:53.459Z,10.80
2023-03-02T10:58:34.010Z,9.90
2023-03-02T11:01:17.242Z,10.30
2023-03-02T11:03:58.493Z,11.10
2023-03-02T11:06:25.517Z,10.60
2023-03-02T11:09:18.526Z,10.00
2023-03-02T11:11:57.011Z,9.60
2023-03-02T11:14:23.941Z,10.40
2023-03-02T11:16:54.389Z,9.00
2023-03-02T11:19:36.391Z,9.50
2023-03-02T11:22:11.757Z,10.70
2023-03-02T11:24:43.814Z,10.70
2023-03-02T11:27:20.171Z,10.60
2023-03-02T11:30:22.716Z,11.10
2023-03-02T11:32:57.040Z,11.90
2023-03-02T11:35:59.353Z,11.20
2023-03-02T11:38:30.070Z,10.30
2023-03-02T11:41:04.373Z,11.10
2023-03-02T11:43:31.344Z,10.70
2023-03-02T11:46:21.620Z,10.80
2023-03-02T11:48:53.124Z,11.70
2023-03-02T11:51:24.531Z,11.00
2023-03-02T11:54:02.798Z,12.40
2023-03-02T11:56:32.518Z,11.80
2023-03-02T11:59:04.990Z,12.00
2023-03-02T12:01:33.575Z,12.90
2023-03-02T12:04:24.820Z,12.50
2023-03-02T12:06:51.473Z,11.80
2023-03-02T12:09:24.306Z,11.20
2023-03-02T12:12:01.283Z,11.70
2023-03-02T12:14:37.955Z,11.20
2023-03-02T12:17:24.654Z,12.20
2023-03-02T12:20:08.555Z,12.60
2023-03-02T12:22:36.283Z,11.60
2023-03-02T12:25:29.050Z,11.40
2023-03-02T12:27:55.784Z,11.90
2023-03-02T12:30:26.684Z,10.40
2023-03-02T12:33:11.908Z,10.60
2023-03-02T12:35:38.620Z,11.30
2023-03-02T12:38:47.921Z,11.10
2023-03-02T12:41:41.919Z,10.40
2023-03-02T12:44:28.256Z,11.00
2023-03-02T12:46:56.331Z,11.40
2023-03-02T12:49:50.049Z,10.60
2023-03-02T12:52:30.898Z,10.70
2023-03-02T12:55:09.679Z,10.80
2023-03-02T12:57:46.944Z,10.60
2023-03-02T13:00:17.243Z,11.20
2023-03-02T13:02:50.282Z,11.20
2023-03-02T13:05:23.505Z,12.00
2023-03-02T13:08:01.104Z,10.90
2023-03-02T13:10:41.125Z,11.80
2023-03-02T13:13:14.184Z,11.40
2023-03-02T13:15:55.163Z,11.40
2023-03-02T13:18:23.751Z,11.60
2023-03-02T13:20:51.456Z,11.70
2023-03-02T13:23:19.352Z,11.30
2023-03-02T13:25:55.273Z,12.30
2023-03-02T13:28:28.036Z,12.90
2023-03-02T13:31:19.365Z,12.70
2023-03-02T13:33:47.798Z,12.80
2023-03-02T13:36:38.538Z,12.30
2023-03-02T13:39:09.056Z,12.50
2023-03-02T13:41:37.190Z,12.90
2023-03-02T13:44:31.228Z,13.40
2023-03-02T13:46:59.000Z,12.80
2023-03-02T13:49:32.525Z,12.20
2023-03-02T13:52:19.747Z,12.30
2023-03-02T13:54:47.179Z,12.40
2023-03-02T13:57:18.233Z,12.50
2023-03-02T13:59:45.213Z,14.00
2023-03-02T14:02:25.308Z,12.80
2023-03-02T14:04:52.522Z,13.20
2023-03-02T14:07:20.709Z,13.20
2023-03-02T14:09:48.221Z,12.80
2023-03-02T14:12:25.300Z,12.30
2023-03-02T14:14:53.891Z,12.40
2023-03-02T14:17:23.832Z,13.00
2023-03-02T14:19:52.815Z,12.80
2023-03-02T14:22:20.161Z,13.10
2023-03-02T14:24:47.384Z,13.50
2023-03-02T14:27:16.028Z,13.00
2023-03-02T14:29:44.576Z,12.80
2023-03-02T14:32:13.580Z,13.70
2023-03-02T14:34:40.835Z,13.00
2023-03-02T14:37:13.149Z,13.00
2023-03-02T14:39:51.158Z,13.60
2023-03-02T14:42:20.564Z,14.00
2023-03-02T14:44:49.014Z,14.50
2023-03-02T14:47:16.627Z,15.50
2023-03-02T14:49:43.976Z,15.60
2023-03-02T14:52:17.427Z,15.40
2023-03-02T14:54:49.222Z,15.80
2023-03-02T14:57:19.879Z,14.70
2023-03-02T14:59:47.085Z,15.20
2023-03-02T15:02:24.895Z,15.80
2023-03-02T15:04:55.985Z,16.00
2023-03-02T15:07:24.080Z,16.00
2023-03-02T15:09:50.728Z,16.00
2023-03-02T15:12:17.425Z,16.60
2023-03-02T15:14:44.033Z,16.80
2023-03-02T15:17:11.040Z,16.70
2023-03-02T15:19:37.701Z,17.00
2023-03-02T15:22:04.655Z,16.70
2023-03-02T15:24:33.354Z,17.30
2023-03-02T15:27:00.697Z,16.90
2023-03-02T15:29:27.390Z,17.30
2023-03-02T15:31:54.259Z,18.00
2023-03-02T15:34:21.099Z,18.40
2023-03-02T15:36:47.754Z,19.00
2023-03-02T15:39:15.268Z,20.00
2023-03-02T15:41:42.343Z,20.70
2023-03-02T15:44:22.105Z,21.20
2023-03-02T15:46:57.125Z,22.00
2023-03-02T15:49:27.217Z,23.00
2023-03-02T15:51:57.445Z,23.60
2023-03-02T15:54:25.826Z,24.20
2023-03-02T15:56:53.336Z,24.50
2023-03-02T15:59:26.374Z,24.90
2023-03-02T16:01:54.012Z,25.20
2023-03-02T16:04:20.746Z,25.50
2023-03-02T16:06:47.441Z,26.20
2023-03-02T16:09:14.105Z,26.80
2023-03-02T16:11:40.794Z,27.10
2023-03-02T16:14:07.641Z,27.80
2023-03-02T16:16:34.429Z,28.30
2023-03-02T16:19:01.381Z,29.00
2023-03-02T16:21:28.932Z,29.20
2023-03-02T16:24:03.079Z,29.60
2023-03-02T16:26:30.712Z,30.00
2023-03-02T16:28:57.368Z,30.50
2023-03-02T16:31:27.975Z,30.50
2023-03-02T16:33:56.180Z,30.80
2023-03-02T16:36:22.813Z,31.00
2023-03-02T16:38:49.456Z,31.50
2023-03-02T16:41:22.237Z,32.00
2023-03-02T16:43:55.161Z,32.10
2023-03-02T16:46:23.175Z,32.80
2023-03-02T16:48:50.480Z,32.90
2023-03-02T16:51:18.621Z,33.10
2023-03-02T16:53:46.192Z,33.30
2023-03-02T16:56:14.243Z,33.70
2023-03-02T16:58:42.327Z,34.10
2023-03-02T17:01:15.452Z,34.60
2023-03-02T17:03:42.674Z,34.90
2023-03-02T17:06:12.204Z,35.30
2023-03-02T17:08:39.334Z,36.40
2023-03-02T17:11:06.545Z,37.40
2023-03-02T17:13:33.298Z,38.30
2023-03-02T17:16:00.166Z,39.20
2023-03-02T17:18:29.609Z,40.10
2023-03-02T17:21:00.641Z,40.60
2023-03-02T17:23:28.179Z,41.20
2023-03-02T17:25:55.977Z,41.60
2023-03-02T17:28:23.512Z,42.50
2023-03-02T17:30:50.312Z,42.80
2023-03-02T17:33:18.195Z,43.60
2023-03-02T17:35:46.176Z,43.80
2023-03-02T17:38:13.262Z,44.30
2023-03-02T17:40:39.957Z,44.90
2023-03-02T17:43:08.240Z,45.60
2023-03-02T17:45:35.497Z,46.50
2023-03-02T17:48:02.303Z,46.80
2023-03-02T17:50:31.698Z,47.60
2023-03-02T17:52:59.742Z,47.80
2023-03-02T17:55:26.970Z,48.30
2023-03-02T17:57:53.770Z,50.60
2023-03-02T18:00:22.973Z,51.30
2023-03-02T18:02:49.820Z,52.60
2023-03-02T18:05:16.541Z,53.30
2023-03-02T18:07:43.313Z,54.20
2023-03-02T18:10:10.733Z,54.70
2023-03-02T18:12:37.592Z,56.00
2023-03-02T18:15:04.705Z,56.00
2023-03-02T18:17:31.419Z,56.60
2023-03-02T18:19:58.187Z,57.10
2023-03-02T18:22:24.844Z,57.30
2023-03-02T18:24:52.730Z,57.40
2023-03-02T18:27:19.785Z,57.60
2023-03-02T18:29:46.591Z,58.20
2023-03-02T18:32:13.786Z,58.70
2023-03-02T18:34:40.663Z,58.70
2023-03-02T18:37:07.578Z,59.20
2023-03-02T18:39:34.824Z,60.30
2023-03-02T18:42:01.460Z,60.00
2023-03-02T18:44:28.343Z,60.80
2023-03-02T18:46:55.934Z,60.60
2023-03-02T18:49:23.709Z,61.10
2023-03-02T18:51:50.737Z,62.50
2023-03-02T18:54:17.411Z,64.00
2023-03-02T18:56:44.564Z,66.20
2023-03-02T18:59:12.092Z,66.50
2023-03-02T19:01:38.872Z,68.30
2023-03-02T19:04:06.118Z,69.90
2023-03-02T19:06:33.373Z,69.80
2023-03-02T19:09:00.440Z,69.60
2023-03-02T19:11:27.228Z,70.00
2023-03-02T19:13:53.918Z,70.10
2023-03-02T19:16:20.675Z,70.50
2023-03-02T19:18:48.643Z,71.30
2023-03-02T19:21:15.923Z,71.60
2023-03-02T19:23:43.740Z,71.90
2023-03-02T19:26:11.265Z,73.00
2023-03-02T19:28:39.853Z,73.30
2023-03-02T19:31:09.091Z,73.70
2023-03-02T19:33:36.592Z,74.50
2023-03-02T19:36:04.376Z,75.90
2023-03-02T19:38:31.471Z,76.70
2023-03-02T19:41:00.296Z,77.00
2023-03-02T19:43:28.669Z,77.30
2023-03-02T19:45:55.631Z,77.40
2023-03-02T19:48:22.459Z,77.30
2023-03-02T19:50:50.014Z,77.10
2023-03-02T19:53:17.249Z,77.00
2023-03-02T19:55:44.969Z,77.10
2023-03-02T19:58:17.094Z,76.90
2023-03-02T20:00:44.499Z,76.80
2023-03-02T20:03:11.211Z,77.00
2023-03-02T20:05:38.434Z,77.30
2023-03-02T20:08:06.303Z,77.40
2023-03-02T20:10:42.616Z,77.30
2023-03-02T20:13:09.762Z,77.50
2023-03-02T20:15:39.626Z,77.50
2023-03-02T20:18:08.815Z,77.70
2023-03-02T20:20:35.936Z,77.60
2023-03-02T20:23:03.885Z,77.70
2023-03-02T20:25:30.932Z,78.00
2023-03-02T20:27:57.724Z,78.40
2023-03-02T20:30:30.477Z,78.90
2023-03-02T20:32:58.259Z,79.40
2023-03-02T20:35:27.130Z,80.30
2023-03-02T20:37:56.486Z,81.00
2023-03-02T20:40:25.262Z,82.10
2023-03-02T20:42:52.451Z,82.90
2023-03-02T20:45:19.302Z,83.00
2023-03-02T20:47:46.782Z,83.10
2023-03-02T20:50:18.047Z,83.00
2023-03-02T20:52:44.958Z,83.10
2023-03-02T20:55:11.864Z,83.20
2023-03-02T20:57:38.553Z,83.20
2023-03-02T21:00:09.229Z,83.40
2023-03-02T21:02:35.898Z,84.10
2023-03-02T21:05:02.624Z,84.70
2023-03-02T21:07:29.365Z,85.00
2023-03-02T21:09:56.102Z,85.20
2023-03-02T21:12:22.993Z,85.30
2023-03-02T21:14:49.948Z,86.20
2023-03-02T21:17:16.659Z,86.80
2023-03-02T21:19:43.347Z,87.50
2023-03-02T21:22:10.006Z,87.90
2023-03-02T21:24:36.759Z,88.00
2023-03-02T21:27:05.322Z,87.90
2023-03-02T21:29:32.064Z,88.00
2023-03-02T21:31:58.926Z,87.90
2023-03-02T21:34:25.855Z,88.00
2023-03-02T21:36:53.716Z,88.10
2023-03-02T21:39:23.512Z,88.30
2023-03-02T21:41:50.622Z,88.30
2023-03-02T21:44:17.356Z,88.30
2023-03-02T21:46:44.412Z,88.60
2023-03-02T21:49:16.243Z,89.10
2023-03-02T21:51:42.901Z,89.90
2023-03-02T21:54:09.660Z,89.80
2023-03-02T21:56:36.587Z,89.80
2023-03-02T21:59:04.076Z,89.80
2023-03-02T22:01:32.692Z,89.60
2023-03-02T22:04:00.654Z,89.60
2023-03-02T22:06:30.247Z,89.90
2023-03-02T22:08:57.721Z,89.80
2023-03-02T22:11:26.747Z,89.80
2023-03-02T22:13:56.744Z,89.90
2023-03-02T22:16:25.640Z,90.10
2023-03-02T22:18:58.260Z,90.20
2023-03-02T22:21:43.187Z,90.40
2023-03-02T22:24:16.672Z,90.30
2023-03-02T22:26:46.002Z,90.30
2023-03-02T22:29:55.137Z,90.30
2023-03-02T22:32:27.301Z,90.30
2023-03-02T22:34:56.552Z,90.40
2023-03-02T22:37:26.699Z,90.40
2023-03-02T22:40:00.566Z,90.60
2023-03-02T22:42:30.597Z,90.50
2023-03-02T22:45:12.830Z,90.60
2023-03-02T22:47:39.457Z,90.80
2023-03-02T22:50:24.165Z,90.80
2023-03-02T22:52:53.418Z,90.80
2023-03-02T22:55:35.403Z,90.50
2023-03-02T22:58:35.681Z,90.50
2023-03-02T23:01:02.676Z,90.60
2023-03-02T23:03:42.991Z,90.40
2023-03-02T23:06:28.388Z,90.20
2023-03-02T23:08:58.484Z,90.00
2023-03-02T23:11:26.267Z,89.90
2023-03-02T23:13:53.953Z,90.00
2023-03-02T23:16:23.927Z,89.90
2023-03-02T23:18:51.914Z,90.10
2023-03-02T23:21:21.372Z,90.00
2023-03-02T23:23:48.773Z,90.20
2023-03-02T23:26:19.448Z,90.10
2023-03-02T23:28:50.479Z,89.90
2023-03-02T23:31:18.489Z,90.20
2023-03-02T23:33:45.776Z,90.30
2023-03-02T23:36:13.233Z,90.70
2023-03-02T23:38:41.045Z,91.10
2023-03-02T23:41:08.445Z,91.20
2023-03-02T23:43:35.918Z,91.30
2023-03-02T23:46:02.639Z,91.50
2023-03-02T23:48:29.288Z,91.60
2023-03-02T23:50:55.898Z,91.90
2023-03-02T23:53:22.536Z,92.10
2023-03-02T23:55:51.420Z,92.40
2023-03-02T23:58:18.196Z,92.70
